createdAt,value
2023-03-16T00:04:24.397Z,59.65
2023-03-16T00:09:31.377Z,59.85
2023-03-16T00:14:36.007Z,59.90
2023-03-16T00:19:38.733Z,59.93
2023-03-16T00:24:43.094Z,60.08
2023-03-16T00:29:49.156Z,60.12
2023-03-16T00:34:52.529Z,60.31
2023-03-16T00:39:56.674Z,60.52
2023-03-16T00:45:01.769Z,60.63
2023-03-16T00:50:05.014Z,60.54
2023-03-16T00:55:08.969Z,60.77
2023-03-16T01:00:16.703Z,60.91
2023-03-16T01:05:19.730Z,60.88
2023-03-16T01:10:22.593Z,60.92
2023-03-16T01:15:27.012Z,61.14
2023-03-16T01:20:30.587Z,61.20
2023-03-16T01:25:33.522Z,61.26
2023-03-16T01:30:37.674Z,61.47
2023-03-16T01:35:41.109Z,61.66
2023-03-16T01:40:44.446Z,61.82
2023-03-16T01:46:18.393Z,61.94
2023-03-16T01:51:28.323Z,62.07
2023-03-16T01:56:36.579Z,62.26
2023-03-16T02:01:40.901Z,62.21
2023-03-16T02:06:44.559Z,62.24
2023-03-16T02:11:48.733Z,62.70
2023-03-16T02:16:53.585Z,62.67
2023-03-16T02:22:03.495Z,62.81
2023-03-16T02:27:10.346Z,62.89
2023-03-16T02:32:18.362Z,62.98
2023-03-16T02:37:21.829Z,63.09
2023-03-16T02:42:27.285Z,63.22
2023-03-16T02:47:41.544Z,63.27
2023-03-16T02:52:44.507Z,63.31
2023-03-16T02:57:47.552Z,63.49
2023-03-16T03:02:53.501Z,63.64
2023-03-16T03:07:56.845Z,63.67
2023-03-16T03:13:00.204Z,63.92
2023-03-16T03:18:05.658Z,63.91
2023-03-16T03:23:08.947Z,63.79
2023-03-16T03:28:11.884Z,63.95
2023-03-16T03:33:16.621Z,64.01
2023-03-16T03:38:19.404Z,64.18
2023-03-16T03:43:22.625Z,64.12
2023-03-16T03:48:29.697Z,64.42
2023-03-16T03:53:33.677Z,64.37
2023-03-16T03:58:59.371Z,64.59
2023-03-16T04:04:29.856Z,64.33
2023-03-16T04:09:33.902Z,64.65
2023-03-16T04:14:37.700Z,64.83
2023-03-16T04:19:46.007Z,64.91
2023-03-16T04:24:52.232Z,65.15
2023-03-16T04:29:58.531Z,65.27
2023-03-16T04:35:03.150Z,65.16
2023-03-16T04:40:24.456Z,64.90
2023-03-16T04:45:36.156Z,64.91
2023-03-16T04:50:40.866Z,64.91
2023-03-16T04:55:45.698Z,64.90
2023-03-16T05:00:49.060Z,64.71
2023-03-16T05:06:02.011Z,64.80
2023-03-16T05:11:08.509Z,64.78
2023-03-16T05:16:17.812Z,64.82
2023-03-16T05:21:23.225Z,64.74
2023-03-16T05:26:34.054Z,64.79
2023-03-16T05:31:38.378Z,64.69
2023-03-16T05:36:48.536Z,64.78
2023-03-16T05:41:55.067Z,64.73
2023-03-16T05:47:15.591Z,64.68
2023-03-16T05:52:25.503Z,64.82
2023-03-16T05:57:30.111Z,64.78
2023-03-16T06:02:34.880Z,64.58
2023-03-16T06:07:39.269Z,64.72
2023-03-16T06:12:42.216Z,64.58
2023-03-16T06:17:45.268Z,64.74
2023-03-16T06:22:49.947Z,64.66
2023-03-16T06:27:53.158Z,64.51
2023-03-16T06:32:56.195Z,64.58
2023-03-16T06:38:01.279Z,64.59
2023-03-16T06:43:20.684Z,64.45
2023-03-16T06:48:23.608Z,64.47
2023-03-16T06:53:28.458Z,64.57
2023-03-16T06:58:32.774Z,64.56
2023-03-16T07:03:37.463Z,64.43
2023-03-16T07:08:56.345Z,64.46
2023-03-16T07:14:00.385Z,64.40
2023-03-16T07:19:04.448Z,64.32
2023-03-16T07:24:11.208Z,64.43
2023-03-16T07:29:15.880Z,64.26
2023-03-16T07:34:19.228Z,64.26
2023-03-16T07:39:28.660Z,64.20
2023-03-16T07:44:38.800Z,64.27
2023-03-16T07:49:42.425Z,49.19
2023-03-16T07:54:46.791Z,46.91
2023-03-16T07:59:49.927Z,46.92
2023-03-16T08:04:53.778Z,46.54
2023-03-16T08:09:58.083Z,46.97
2023-03-16T08:15:10.204Z,47.58
2023-03-16T08:20:15.456Z,48.36
2023-03-16T08:25:21.153Z,48.94
2023-03-16T08:30:33.291Z,50.03
2023-03-16T08:35:56.080Z,50.73
2023-03-16T08:41:00.641Z,52.27
2023-03-16T08:46:04.272Z,53.56
2023-03-16T08:51:18.856Z,54.98
2023-03-16T08:56:23.352Z,56.49
2023-03-16T09:01:26.575Z,57.63
2023-03-16T09:06:30.400Z,58.43
2023-03-16T09:11:34.507Z,59.25
2023-03-16T09:16:38.372Z,59.29
2023-03-16T09:21:41.248Z,59.92
2023-03-16T09:26:45.689Z,60.44
2023-03-16T09:31:48.981Z,60.69
2023-03-16T09:36:53.697Z,60.80
2023-03-16T09:42:05.759Z,60.94
2023-03-16T09:47:12.033Z,61.14
2023-03-16T09:52:28.053Z,61.20
2023-03-16T09:57:51.653Z,61.24
2023-03-16T10:03:54.970Z,61.33
2023-03-16T10:09:06.982Z,61.50
2023-03-16T10:14:20.449Z,61.59
2023-03-16T10:19:33.039Z,61.77
2023-03-16T10:24:46.524Z,61.44
2023-03-16T10:29:50.916Z,61.27
2023-03-16T10:34:59.600Z,55.30
2023-03-16T10:40:09.055Z,56.40
2023-03-16T10:45:28.626Z,56.77
2023-03-16T10:50:34.193Z,56.94
2023-03-16T10:55:43.600Z,57.56
2023-03-16T11:00:47.786Z,58.16
2023-03-16T11:05:59.164Z,58.33
2023-03-16T11:11:11.801Z,58.48
2023-03-16T11:16:29.217Z,58.58
2023-03-16T11:21:41.773Z,58.46
2023-03-16T11:26:48.841Z,58.46
2023-03-16T11:31:58.816Z,58.34
2023-03-16T11:37:12.998Z,58.26
2023-03-16T11:42:28.406Z,58.44
2023-03-16T11:47:55.083Z,58.42
2023-03-16T11:53:07.459Z,58.39
2023-03-16T11:58:29.117Z,58.42
2023-03-16T12:03:50.259Z,58.22
2023-03-16T12:09:25.194Z,58.05
2023-03-16T12:14:32.111Z,57.89
2023-03-16T12:19:44.685Z,57.90
2023-03-16T12:24:48.251Z,57.53
2023-03-16T12:30:03.803Z,57.32
2023-03-16T12:35:22.278Z,56.79
2023-03-16T12:40:34.868Z,56.80
2023-03-16T12:45:43.316Z,56.70
2023-03-16T12:50:52.586Z,56.60
2023-03-16T12:55:57.280Z,56.42
2023-03-16T13:01:01.003Z,56.21
2023-03-16T13:06:06.239Z,55.91
2023-03-16T13:11:11.293Z,55.98
2023-03-16T13:16:25.582Z,55.91
2023-03-16T13:21:40.930Z,56.16
2023-03-16T13:26:47.444Z,55.88
2023-03-16T13:31:51.483Z,56.04
2023-03-16T13:36:58.148Z,56.04
2023-03-16T13:42:04.626Z,55.78
2023-03-16T13:47:08.392Z,55.97
2023-03-16T13:52:21.465Z,56.41
2023-03-16T13:57:26.889Z,56.63
2023-03-16T14:02:29.811Z,56.53
2023-03-16T14:07:38.608Z,56.54
2023-03-16T14:12:51.836Z,56.90
2023-03-16T14:17:54.785Z,56.66
2023-03-16T14:23:01.513Z,56.98
2023-03-16T14:28:08.855Z,57.06
2023-03-16T14:33:28.385Z,56.90
2023-03-16T14:38:36.316Z,56.81
2023-03-16T14:43:46.131Z,57.08
2023-03-16T14:48:50.550Z,57.02
2023-03-16T14:53:54.869Z,56.96
2023-03-16T14:58:58.151Z,57.02
2023-03-16T15:04:02.257Z,57.00
2023-03-16T15:09:07.099Z,57.19
2023-03-16T15:14:37.677Z,57.03
2023-03-16T15:19:41.398Z,57.03
2023-03-16T15:24:46.492Z,56.82
2023-03-16T15:29:49.425Z,56.94
2023-03-16T15:34:53.321Z,56.95
2023-03-16T15:39:57.637Z,57.06
2023-03-16T15:45:00.662Z,57.34
2023-03-16T15:50:03.598Z,57.89
2023-03-16T15:55:15.300Z,58.02
2023-03-16T16:00:28.893Z,58.12
2023-03-16T16:05:33.041Z,58.32
2023-03-16T16:10:37.318Z,58.75
2023-03-16T16:15:41.438Z,58.55
2023-03-16T16:20:44.334Z,51.35
2023-03-16T16:25:49.654Z,56.31
2023-03-16T16:30:52.595Z,56.99
2023-03-16T16:35:57.940Z,57.11
2023-03-16T16:41:07.569Z,57.39
2023-03-16T16:46:16.445Z,57.82
2023-03-16T16:51:21.558Z,58.28
2023-03-16T16:56:28.751Z,58.54
2023-03-16T17:01:34.960Z,59.16
2023-03-16T17:06:37.778Z,59.33
2023-03-16T17:11:43.478Z,59.58
2023-03-16T17:16:48.318Z,59.69
2023-03-16T17:21:52.132Z,60.18
2023-03-16T17:26:58.749Z,61.29
2023-03-16T17:32:03.782Z,62.73
2023-03-16T17:37:08.470Z,63.48
2023-03-16T17:42:15.885Z,63.79
2023-03-16T17:47:23.024Z,64.22
2023-03-16T17:52:28.423Z,63.87
2023-03-16T17:57:34.541Z,63.83
2023-03-16T18:02:41.521Z,63.35
2023-03-16T18:07:44.327Z,62.77
2023-03-16T18:12:55.135Z,62.58
2023-03-16T18:17:59.465Z,62.55
2023-03-16T18:23:03.614Z,62.35
2023-03-16T18:28:09.782Z,62.13
2023-03-16T18:33:24.829Z,62.10
2023-03-16T18:38:31.425Z,62.03
2023-03-16T18:43:36.048Z,61.89
2023-03-16T18:48:38.872Z,61.75
2023-03-16T18:53:42.017Z,61.62
2023-03-16T18:58:47.005Z,61.70
2023-03-16T19:03:50.055Z,61.46
2023-03-16T19:08:53.451Z,61.46
2023-03-16T19:13:57.681Z,61.46
2023-03-16T19:19:00.674Z,61.50
2023-03-16T19:24:05.961Z,61.63
2023-03-16T19:29:14.241Z,61.37
2023-03-16T19:34:18.727Z,61.07
2023-03-16T19:39:21.691Z,60.54
2023-03-16T19:44:27.968Z,60.28
2023-03-16T19:49:31.849Z,59.97
2023-03-16T19:54:35.081Z,59.80
2023-03-16T19:59:39.435Z,59.31
2023-03-16T20:04:42.270Z,59.10
2023-03-16T20:09:45.973Z,58.89
2023-03-16T20:14:51.235Z,58.73
2023-03-16T20:19:54.062Z,58.58
2023-03-16T20:24:57.965Z,58.48
2023-03-16T20:30:02.851Z,58.23
2023-03-16T20:35:14.630Z,57.97
2023-03-16T20:40:17.921Z,57.57
2023-03-16T20:45:25.725Z,57.50
2023-03-16T20:50:30.638Z,57.40
2023-03-16T20:55:34.001Z,57.05
2023-03-16T21:00:40.383Z,57.05
2023-03-16T21:05:43.458Z,56.91
2023-03-16T21:10:48.529Z,56.83
2023-03-16T21:15:55.782Z,56.85
2023-03-16T21:20:58.833Z,56.69
2023-03-16T21:26:03.760Z,56.42
2023-03-16T21:31:08.376Z,56.60
2023-03-16T21:36:16.052Z,56.33
2023-03-16T21:41:19.097Z,56.22
2023-03-16T21:46:25.484Z,56.23
2023-03-16T21:51:31.174Z,56.25
2023-03-16T21:56:34.013Z,56.81
2023-03-16T22:01:50.932Z,57.28
2023-03-16T22:07:01.340Z,57.35
2023-03-16T22:12:04.455Z,57.65
2023-03-16T22:17:16.672Z,57.61
2023-03-16T22:22:19.527Z,57.83
2023-03-16T22:27:26.027Z,57.90
2023-03-16T22:32:30.209Z,58.07
2023-03-16T22:37:33.052Z,58.16
2023-03-16T22:42:38.523Z,58.09
2023-03-16T22:47:42.866Z,58.11
2023-03-16T22:52:48.873Z,58.42
2023-03-16T22:58:02.389Z,58.44
2023-03-16T23:03:15.180Z,58.47
2023-03-16T23:08:21.034Z,58.48
2023-03-16T23:13:27.033Z,58.58
2023-03-16T23:18:31.244Z,58.47
2023-03-16T23:23:34.035Z,58.71
2023-03-16T23:28:36.804Z,58.75
2023-03-16T23:33:42.086Z,58.50
2023-03-16T23:38:45.308Z,58.62
2023-03-16T23:43:49.570Z,58.84
2023-03-16T23:48:56.429Z,58.81
2023-03-16T23:53:59.817Z,59.11
2023-03-16T23:59:02.588Z,59.26
